Time;durP1;ratioP1;P1;durP2;ratioP2;P2;SDS_P1;SDS_P2;PMS_P1;PMS_P2;Temp;Humidity;BMP_temperature;BMP_pressure;BME280_temperature;BME280_humidity;BME280_pressure;Samples;Min_cycle;Max_cycle;Signal;HPM_P1;HPM_P2
2022/11/21 00:01:22;;;;;;;22.07;12.83;;;0.00;99.90;;;;;;5002284;28;20207;-70
2022/11/21 00:03:48;;;;;;;23.57;12.90;;;0.10;99.90;;;;;;5005231;28;20214;-70
2022/11/21 00:06:14;;;;;;;24.43;14.57;;;0.10;99.90;;;;;;5005056;28;20176;-70
2022/11/21 00:08:40;;;;;;;22.37;12.63;;;0.10;99.90;;;;;;5004185;28;20181;-70
2022/11/21 00:11:05;;;;;;;24.37;13.83;;;0.00;99.90;;;;;;5006179;28;20214;-70
2022/11/21 00:13:31;;;;;;;24.83;13.90;;;0.00;99.90;;;;;;5004337;28;20321;-70
2022/11/21 00:16:03;;;;;;;23.67;13.07;;;0.10;99.90;;;;;;5003016;28;20551;-71
2022/11/21 00:18:28;;;;;;;23.40;14.53;;;0.10;99.90;;;;;;5007400;28;20284;-69
2022/11/21 00:20:54;;;;;;;24.03;12.93;;;0.10;99.90;;;;;;4999863;28;20181;-70
2022/11/21 00:23:20;;;;;;;24.23;13.53;;;0.10;99.90;;;;;;5009179;28;20215;-70
2022/11/21 00:25:45;;;;;;;25.13;13.17;;;0.00;99.90;;;;;;5003714;28;20208;-69
2022/11/21 00:28:11;;;;;;;20.97;13.20;;;0.00;99.90;;;;;;5002811;28;20218;-69
2022/11/21 00:30:36;;;;;;;29.27;14.03;;;0.00;99.90;;;;;;5008374;28;20207;-70
2022/11/21 00:33:02;;;;;;;23.67;13.27;;;0.10;99.90;;;;;;5003898;28;20656;-70
2022/11/21 00:35:29;;;;;;;26.17;14.93;;;0.10;99.90;;;;;;5003335;28;20213;-70
2022/11/21 00:37:55;;;;;;;25.33;13.33;;;0.20;99.90;;;;;;5006322;28;20699;-70
2022/11/21 00:40:20;;;;;;;26.40;14.83;;;0.20;99.90;;;;;;5004723;28;20255;-71
2022/11/21 00:42:46;;;;;;;22.00;13.17;;;0.20;99.90;;;;;;5002781;28;20217;-70
2022/11/21 00:45:12;;;;;;;26.43;14.07;;;0.10;99.90;;;;;;5004726;28;20200;-70
2022/11/21 00:47:37;;;;;;;22.57;13.67;;;0.20;99.90;;;;;;5003313;28;20170;-70
2022/11/21 00:50:03;;;;;;;23.73;13.37;;;0.20;99.90;;;;;;5006601;28;20633;-71
2022/11/21 00:52:29;;;;;;;27.00;14.70;;;0.20;99.90;;;;;;5010532;28;20216;-68
2022/11/21 00:54:55;;;;;;;27.03;14.53;;;0.10;99.90;;;;;;5000445;28;20649;-70
2022/11/21 00:57:21;;;;;;;24.67;14.30;;;0.20;99.90;;;;;;5008693;28;20199;-70
2022/11/21 00:59:47;;;;;;;28.33;13.90;;;0.30;99.90;;;;;;5002423;28;20183;-69
2022/11/21 01:02:12;;;;;;;24.10;14.07;;;0.30;99.90;;;;;;5002409;28;20267;-69
2022/11/21 01:04:38;;;;;;;23.03;13.27;;;0.30;99.90;;;;;;5007689;28;20290;-69
2022/11/21 01:07:04;;;;;;;26.57;14.97;;;0.20;99.90;;;;;;5001632;28;20269;-69
2022/11/21 01:09:29;;;;;;;24.70;13.47;;;0.30;99.90;;;;;;5002520;28;20219;-68
2022/11/21 01:11:55;;;;;;;24.57;13.67;;;0.30;99.90;;;;;;5005888;28;20175;-69
2022/11/21 01:14:21;;;;;;;24.17;14.33;;;0.40;99.90;;;;;;5004182;28;20774;-69
2022/11/21 01:16:47;;;;;;;25.20;14.47;;;0.40;99.90;;;;;;5003746;28;20296;-69
2022/11/21 01:19:13;;;;;;;24.63;14.57;;;0.30;99.90;;;;;;5007527;28;20698;-71
2022/11/21 01:21:38;;;;;;;22.30;13.07;;;0.30;99.90;;;;;;5002401;28;20739;-69
2022/11/21 01:24:04;;;;;;;24.77;14.30;;;0.30;99.90;;;;;;5008324;28;20708;-70
2022/11/21 01:26:31;;;;;;;24.07;13.40;;;0.30;99.90;;;;;;5007535;28;20220;-67
2022/11/21 01:28:58;;;;;;;27.33;14.93;;;0.20;99.90;;;;;;5004450;28;20214;-70
2022/11/21 01:31:28;;;;;;;23.30;13.70;;;0.20;99.90;;;;;;5047767;22;20232;-69
2022/11/21 01:33:56;;;;;;;26.13;14.40;;;0.30;99.90;;;;;;5022868;28;20266;-69
2022/11/21 01:36:24;;;;;;;22.47;14.17;;;0.30;99.90;;;;;;5022210;28;20218;-70
2022/11/21 01:38:52;;;;;;;25.70;14.47;;;0.30;99.90;;;;;;5025988;28;20189;-70
2022/11/21 01:41:21;;;;;;;25.33;14.90;;;0.30;99.90;;;;;;5019373;28;20228;-70
2022/11/21 01:43:48;;;;;;;25.67;14.03;;;0.40;99.90;;;;;;5024717;28;20233;-70
2022/11/21 01:46:17;;;;;;;28.57;15.67;;;0.40;99.90;;;;;;5025304;28;20228;-69
2022/11/21 01:48:55;;;;;;;25.80;13.70;;;0.30;99.90;;;;;;5022808;28;20220;-69
2022/11/21 01:51:23;;;;;;;27.67;15.17;;;0.20;99.90;;;;;;5025254;28;20259;-70
2022/11/21 01:54:15;;;;;;;25.03;13.57;;;0.20;99.90;;;;;;5025114;28;20199;-69
2022/11/21 01:56:49;;;;;;;25.53;13.70;;;0.30;99.90;;;;;;5020170;28;20790;-69
2022/11/21 01:59:30;;;;;;;24.57;14.67;;;0.40;99.90;;;;;;5027430;28;20759;-67
2022/11/21 02:01:57;;;;;;;25.93;14.10;;;0.30;99.90;;;;;;5023046;28;20225;-69
2022/11/21 02:04:27;;;;;;;25.70;14.10;;;0.30;99.90;;;;;;5025326;28;20593;-69
2022/11/21 02:06:53;;;;;;;28.23;14.77;;;0.30;99.90;;;;;;5026026;28;20269;-67
2022/11/21 02:09:19;;;;;;;24.93;14.50;;;0.30;99.90;;;;;;5025153;28;20189;-70
2022/11/21 02:11:56;;;;;;;31.17;14.90;;;0.30;99.90;;;;;;5027272;28;20620;-69
2022/11/21 02:14:22;;;;;;;24.60;13.73;;;0.30;99.90;;;;;;5024777;28;20226;-69
2022/11/21 02:16:48;;;;;;;27.27;14.13;;;0.30;99.90;;;;;;5025033;28;20230;-69
2022/11/21 02:19:35;;;;;;;27.13;13.50;;;0.30;99.90;;;;;;5028641;28;20207;-68
2022/11/21 02:22:15;;;;;;;26.07;13.97;;;0.20;99.90;;;;;;5023176;28;20219;-68
2022/11/21 02:25:00;;;;;;;24.77;13.47;;;0.30;99.90;;;;;;5027782;28;20217;-68
2022/11/21 02:27:27;;;;;;;24.70;13.73;;;0.30;99.90;;;;;;5021830;28;20180;-69
2022/11/21 02:29:53;;;;;;;24.30;13.73;;;0.30;99.90;;;;;;5025033;28;20276;-66
2022/11/21 02:32:35;;;;;;;28.73;14.70;;;0.30;99.90;;;;;;5029500;28;20306;-69
2022/11/21 02:35:01;;;;;;;24.30;13.70;;;0.30;99.90;;;;;;5026475;28;20215;-68
2022/11/21 02:37:27;;;;;;;29.33;14.17;;;0.30;99.90;;;;;;5026161;28;20232;-69
2022/11/21 02:39:54;;;;;;;28.77;15.03;;;0.20;99.90;;;;;;5023915;28;20216;-67
2022/11/21 02:42:52;;;;;;;25.40;14.30;;;0.20;99.90;;;;;;5025741;28;20223;-68
2022/11/21 02:45:20;;;;;;;26.30;14.93;;;0.20;99.90;;;;;;5017005;28;20207;-69
2022/11/21 02:47:49;;;;;;;24.50;13.93;;;0.10;99.90;;;;;;5025874;28;20197;-68
2022/11/21 02:50:18;;;;;;;25.67;14.93;;;0.00;99.90;;;;;;5023621;28;20219;-69
2022/11/21 02:52:43;;;;;;;31.03;15.97;;;0.00;99.90;;;;;;5025762;28;20576;-68
2022/11/21 02:55:10;;;;;;;29.73;15.90;;;0.10;99.90;;;;;;5024744;28;20206;-68
2022/11/21 02:57:37;;;;;;;26.77;15.10;;;0.00;99.90;;;;;;5022488;28;20287;-69
2022/11/21 03:00:04;;;;;;;28.53;15.83;;;-0.10;99.90;;;;;;5026861;28;20653;-69
2022/11/21 03:02:30;;;;;;;29.90;15.53;;;-0.10;99.90;;;;;;5023866;28;20222;-67
2022/11/21 03:04:56;;;;;;;26.60;15.60;;;-0.10;99.90;;;;;;5026333;28;20286;-70
2022/11/21 03:07:21;;;;;;;33.07;16.63;;;-0.10;99.90;;;;;;5027823;28;20224;-68
2022/11/21 03:09:47;;;;;;;29.13;16.07;;;-0.10;99.90;;;;;;5025181;28;20214;-69
2022/11/21 03:12:12;;;;;;;28.63;16.30;;;-0.20;99.90;;;;;;5026247;28;20236;-69
2022/11/21 03:14:38;;;;;;;26.17;14.17;;;-0.20;99.90;;;;;;5026478;28;20192;-69
2022/11/21 03:17:04;;;;;;;27.10;15.20;;;-0.10;99.90;;;;;;5020700;28;20784;-69
2022/11/21 03:19:30;;;;;;;28.73;16.63;;;-0.10;99.90;;;;;;5028716;28;20217;-69
2022/11/21 03:21:55;;;;;;;28.63;15.07;;;-0.10;99.90;;;;;;5022952;28;20267;-69
2022/11/21 03:24:21;;;;;;;27.83;15.90;;;0.00;99.90;;;;;;5023679;28;20658;-69
2022/11/21 03:26:47;;;;;;;27.70;14.90;;;0.00;99.90;;;;;;5022304;28;20186;-69
2022/11/21 03:29:13;;;;;;;28.50;16.30;;;0.00;99.90;;;;;;5020964;28;20216;-68
2022/11/21 03:31:38;;;;;;;28.50;16.00;;;-0.10;99.90;;;;;;5017880;28;20612;-69
2022/11/21 03:34:04;;;;;;;30.13;16.90;;;0.00;99.90;;;;;;5019222;28;20215;-69
2022/11/21 03:36:30;;;;;;;26.10;14.97;;;0.10;99.90;;;;;;5022307;28;20312;-66
2022/11/21 03:38:56;;;;;;;31.37;16.53;;;0.10;99.90;;;;;;5020750;28;20175;-68
2022/11/21 03:41:28;;;;;;;31.17;16.70;;;0.10;99.90;;;;;;5021069;28;20221;-69
2022/11/21 03:44:03;;;;;;;28.17;16.67;;;0.20;99.90;;;;;;5019180;28;20224;-67
2022/11/21 03:46:30;;;;;;;26.87;15.07;;;0.20;99.90;;;;;;5021049;28;20718;-68
2022/11/21 03:48:56;;;;;;;28.57;15.47;;;0.30;99.90;;;;;;5019162;28;20215;-68
2022/11/21 03:51:22;;;;;;;29.17;15.10;;;0.30;99.90;;;;;;5019424;28;20220;-68
2022/11/21 03:53:48;;;;;;;27.63;15.93;;;0.30;99.90;;;;;;5020577;28;20259;-69
2022/11/21 03:56:14;;;;;;;29.97;15.93;;;0.30;99.90;;;;;;5025123;28;20263;-68
2022/11/21 03:58:40;;;;;;;26.90;15.93;;;0.30;99.90;;;;;;5019133;28;20214;-69
2022/11/21 04:01:06;;;;;;;31.67;16.43;;;0.40;99.90;;;;;;5018419;28;20213;-69
2022/11/21 04:03:31;;;;;;;27.63;15.73;;;0.30;99.90;;;;;;5021777;28;20210;-67
2022/11/21 04:05:57;;;;;;;24.40;14.87;;;0.30;99.90;;;;;;5018714;28;20207;-69
2022/11/21 04:08:23;;;;;;;31.60;16.30;;;0.30;99.90;;;;;;5024297;28;20578;-69
2022/11/21 04:10:50;;;;;;;28.70;16.13;;;0.30;99.90;;;;;;5023988;28;20712;-69
2022/11/21 04:13:16;;;;;;;30.37;16.47;;;0.20;99.90;;;;;;5017500;28;20242;-69
2022/11/21 04:15:42;;;;;;;26.93;15.30;;;0.30;99.90;;;;;;5020922;28;20238;-69
2022/11/21 04:18:08;;;;;;;28.80;15.27;;;0.30;99.90;;;;;;5018881;28;20280;-69
2022/11/21 04:20:34;;;;;;;27.00;15.23;;;0.30;99.90;;;;;;5022816;28;20338;-69
2022/11/21 04:22:59;;;;;;;28.17;16.43;;;0.40;99.90;;;;;;5020781;28;20216;-69
2022/11/21 04:25:25;;;;;;;27.83;15.30;;;0.40;99.90;;;;;;5017847;28;20215;-69
2022/11/21 04:27:51;;;;;;;27.37;14.93;;;0.40;99.90;;;;;;5019134;28;20699;-69
2022/11/21 04:30:16;;;;;;;31.17;17.07;;;0.40;99.90;;;;;;5020106;28;20225;-69
2022/11/21 04:32:43;;;;;;;30.40;16.87;;;0.30;99.90;;;;;;5017751;28;20175;-69
2022/11/21 04:35:08;;;;;;;31.93;16.97;;;0.30;99.90;;;;;;5018676;28;20739;-69
2022/11/21 04:37:34;;;;;;;32.53;16.87;;;0.30;99.90;;;;;;5019290;28;20225;-69
2022/11/21 04:40:00;;;;;;;29.17;16.57;;;0.40;99.90;;;;;;5018184;28;20225;-69
2022/11/21 04:42:25;;;;;;;30.27;17.17;;;0.40;99.90;;;;;;5021198;28;20183;-69
2022/11/21 04:44:51;;;;;;;32.17;17.33;;;0.30;99.90;;;;;;5019627;28;20196;-69
2022/11/21 04:47:16;;;;;;;31.00;17.87;;;0.30;99.90;;;;;;5018915;28;20224;-70
2022/11/21 04:49:42;;;;;;;33.73;17.60;;;0.40;99.90;;;;;;5018791;28;20912;-69
2022/11/21 04:52:07;;;;;;;33.03;17.53;;;0.40;99.90;;;;;;5017576;28;20624;-69
2022/11/21 04:54:33;;;;;;;28.67;17.23;;;0.30;99.90;;;;;;5020844;28;20210;-70
2022/11/21 04:56:59;;;;;;;32.30;18.00;;;0.30;99.90;;;;;;5021052;28;20264;-69
2022/11/21 04:59:24;;;;;;;33.93;17.70;;;0.40;99.90;;;;;;5018238;28;20587;-69
2022/11/21 05:01:50;;;;;;;30.10;16.80;;;0.40;99.90;;;;;;5019806;28;20268;-69
2022/11/21 05:04:15;;;;;;;30.77;17.17;;;0.40;99.90;;;;;;5020523;28;20208;-69
2022/11/21 05:06:41;;;;;;;31.53;16.93;;;0.50;99.90;;;;;;5018930;28;20241;-69
2022/11/21 05:09:06;;;;;;;29.47;17.80;;;0.50;99.90;;;;;;5018547;28;20191;-68
2022/11/21 05:14:16;;;;;;;34.90;17.43;;;0.50;99.90;;;;;;5018475;28;20247;-70
2022/11/21 05:16:42;;;;;;;31.40;17.27;;;0.50;99.90;;;;;;5019960;28;20844;-69
2022/11/21 05:19:08;;;;;;;32.00;17.10;;;0.60;99.90;;;;;;5020983;28;20228;-69
2022/11/21 05:21:34;;;;;;;28.80;16.73;;;0.60;99.90;;;;;;5023661;28;20229;-69
2022/11/21 05:23:59;;;;;;;30.37;17.13;;;0.70;99.90;;;;;;5022196;28;20216;-69
2022/11/21 05:26:25;;;;;;;32.20;16.37;;;0.70;99.90;;;;;;5024000;28;20218;-69
2022/11/21 05:28:51;;;;;;;28.53;16.20;;;0.70;99.90;;;;;;5023409;28;20208;-69
2022/11/21 05:31:16;;;;;;;26.93;16.20;;;0.60;99.90;;;;;;5023500;28;20255;-69
2022/11/21 05:33:42;;;;;;;26.33;15.67;;;0.60;99.90;;;;;;5020100;28;20301;-69
2022/11/21 05:36:07;;;;;;;30.17;16.10;;;0.60;99.90;;;;;;5027732;28;20211;-68
2022/11/21 05:38:33;;;;;;;27.50;15.90;;;0.60;99.90;;;;;;5025040;28;20225;-69
2022/11/21 05:40:59;;;;;;;29.50;16.20;;;0.60;99.90;;;;;;5029438;28;20209;-69
2022/11/21 05:46:08;;;;;;;28.90;16.53;;;0.60;99.90;;;;;;5027504;28;20299;-69
2022/11/21 05:48:35;;;;;;;29.20;16.73;;;0.50;99.90;;;;;;5031852;28;20238;-69
2022/11/21 05:51:02;;;;;;;31.10;16.17;;;0.50;99.90;;;;;;5024582;28;20729;-69
2022/11/21 05:53:27;;;;;;;32.47;17.30;;;0.60;99.90;;;;;;5028366;28;20584;-69
2022/11/21 05:55:53;;;;;;;30.20;17.83;;;0.60;99.90;;;;;;5026992;28;20245;-68
2022/11/21 05:58:19;;;;;;;30.67;16.70;;;0.60;99.90;;;;;;5029792;28;20729;-69
2022/11/21 06:00:44;;;;;;;30.87;16.13;;;0.60;99.90;;;;;;5027632;28;20234;-67
2022/11/21 06:03:26;;;;;;;33.30;16.97;;;0.60;99.90;;;;;;5029188;28;20188;-69
2022/11/21 06:05:57;;;;;;;31.33;17.87;;;0.60;99.90;;;;;;5021659;28;20185;-69
2022/11/21 06:08:22;;;;;;;29.23;17.03;;;0.70;99.90;;;;;;5021164;28;20272;-69
2022/11/21 06:10:48;;;;;;;29.17;16.77;;;0.70;99.90;;;;;;5024513;28;20387;-70
2022/11/21 06:13:23;;;;;;;30.10;16.50;;;0.60;99.90;;;;;;5027745;28;20774;-69
2022/11/21 06:15:59;;;;;;;29.60;16.87;;;0.70;99.90;;;;;;5026466;28;20240;-69
2022/11/21 06:18:25;;;;;;;34.73;17.97;;;0.70;99.90;;;;;;5029566;28;20215;-69
2022/11/21 06:20:51;;;;;;;28.80;16.63;;;0.70;99.90;;;;;;5029995;28;20640;-69
2022/11/21 06:23:17;;;;;;;32.23;16.87;;;0.70;99.90;;;;;;5030956;28;20246;-69
2022/11/21 06:25:43;;;;;;;32.77;17.03;;;0.80;99.90;;;;;;5021560;28;20657;-69
2022/11/21 06:28:10;;;;;;;30.23;16.83;;;0.80;99.90;;;;;;5028873;28;20631;-69
2022/11/21 06:30:35;;;;;;;32.03;18.00;;;0.70;99.90;;;;;;5024620;28;20614;-69
2022/11/21 06:33:05;;;;;;;31.50;17.37;;;0.80;99.90;;;;;;5023969;28;20190;-69
2022/11/21 06:35:31;;;;;;;29.60;17.37;;;0.70;99.90;;;;;;5029566;28;20206;-67
2022/11/21 06:37:59;;;;;;;30.70;17.20;;;0.60;99.90;;;;;;5023598;28;20224;-69
2022/11/21 06:40:25;;;;;;;30.03;16.50;;;0.60;99.90;;;;;;5031006;28;20212;-69
2022/11/21 06:42:51;;;;;;;33.13;17.43;;;0.60;99.90;;;;;;5027005;28;20766;-69
2022/11/21 06:45:16;;;;;;;32.50;17.50;;;0.70;99.90;;;;;;5025124;28;20253;-68
2022/11/21 06:47:42;;;;;;;33.23;18.27;;;0.70;99.90;;;;;;5027584;28;20268;-69
2022/11/21 06:50:08;;;;;;;34.63;18.80;;;0.70;99.90;;;;;;5025745;28;20717;-69
2022/11/21 06:52:34;;;;;;;30.13;17.57;;;0.70;99.90;;;;;;5023632;28;20247;-68
2022/11/21 06:55:00;;;;;;;35.67;19.23;;;0.70;99.90;;;;;;5028625;28;20220;-69
2022/11/21 06:57:26;;;;;;;38.23;19.03;;;0.70;99.90;;;;;;5027069;28;20572;-69
2022/11/21 06:59:51;;;;;;;35.57;18.13;;;0.70;99.90;;;;;;5019594;28;20189;-69
2022/11/21 07:02:17;;;;;;;28.90;16.43;;;0.60;99.90;;;;;;5030112;28;20216;-68
2022/11/21 07:04:42;;;;;;;36.60;18.97;;;0.60;99.90;;;;;;5024379;28;20211;-69
2022/11/21 07:07:08;;;;;;;33.57;17.77;;;0.60;99.90;;;;;;5029559;28;20300;-69
2022/11/21 07:09:34;;;;;;;32.30;18.20;;;0.60;99.90;;;;;;5028378;28;20749;-68
2022/11/21 07:14:45;;;;;;;28.50;17.13;;;0.40;99.90;;;;;;5026730;28;20584;-68
2022/11/21 07:17:12;;;;;;;35.43;19.13;;;0.40;99.90;;;;;;5025959;28;20232;-68
2022/11/21 07:19:38;;;;;;;38.73;19.33;;;0.40;99.90;;;;;;5020873;28;20871;-68
2022/11/21 07:22:03;;;;;;;36.00;19.00;;;0.50;99.90;;;;;;5027027;28;20223;-68
2022/11/21 07:24:29;;;;;;;36.73;19.13;;;0.60;99.90;;;;;;5026419;28;20212;-68
2022/11/21 07:26:54;;;;;;;36.70;19.53;;;0.50;99.90;;;;;;5020950;28;20188;-68
2022/11/21 07:29:20;;;;;;;38.03;20.17;;;0.40;99.90;;;;;;5027910;28;20782;-68
2022/11/21 07:31:46;;;;;;;32.50;19.40;;;0.30;99.90;;;;;;5025856;28;20896;-69
2022/11/21 07:34:11;;;;;;;39.57;20.27;;;0.30;99.90;;;;;;5027289;28;20224;-69
2022/11/21 07:36:37;;;;;;;40.10;20.20;;;0.40;99.90;;;;;;5023536;28;20220;-69
2022/11/21 07:39:03;;;;;;;38.50;21.00;;;0.40;99.90;;;;;;5026128;28;20178;-69
2022/11/21 07:41:28;;;;;;;36.63;19.43;;;0.40;99.90;;;;;;5025011;28;20230;-69
2022/11/21 07:43:54;;;;;;;39.60;19.83;;;0.50;99.90;;;;;;5022901;28;20790;-68
2022/11/21 07:46:20;;;;;;;35.57;20.20;;;0.50;99.90;;;;;;5024398;28;20222;-68
2022/11/21 07:48:45;;;;;;;33.63;19.30;;;0.50;99.90;;;;;;5041584;23;20256;-69
2022/11/21 07:51:11;;;;;;;36.90;19.37;;;0.50;99.90;;;;;;5028786;28;20553;-69
2022/11/21 07:53:36;;;;;;;35.00;19.23;;;0.60;99.90;;;;;;5023428;28;20243;-69
2022/11/21 07:56:03;;;;;;;37.50;18.67;;;0.60;99.90;;;;;;5024164;28;20224;-69
2022/11/21 07:58:29;;;;;;;36.10;19.63;;;0.40;99.90;;;;;;5025069;28;20225;-69
2022/11/21 08:00:55;;;;;;;38.90;20.57;;;0.30;99.90;;;;;;5022768;28;20297;-69
2022/11/21 08:03:21;;;;;;;36.43;20.33;;;0.20;99.90;;;;;;5028716;28;20186;-69
2022/11/21 08:05:47;;;;;;;42.00;21.80;;;0.20;99.90;;;;;;5026076;28;20521;-68
2022/11/21 08:08:13;;;;;;;42.97;21.40;;;0.20;99.90;;;;;;5025049;28;20230;-69
2022/11/21 08:10:43;;;;;;;42.80;22.67;;;0.20;99.90;;;;;;5026068;28;20288;-68
2022/11/21 08:13:09;;;;;;;43.20;21.87;;;0.20;99.90;;;;;;5022299;28;20215;-69
2022/11/21 08:15:35;;;;;;;43.03;21.57;;;0.30;99.90;;;;;;5022307;28;20717;-68
2022/11/21 08:18:15;;;;;;;45.23;21.90;;;0.10;99.90;;;;;;5024210;28;20302;-69
2022/11/21 08:20:41;;;;;;;41.57;19.17;;;0.10;99.90;;;;;;5020819;28;20214;-69
2022/11/21 08:23:08;;;;;;;38.57;19.73;;;0.30;99.90;;;;;;5027537;28;20224;-69
2022/11/21 08:25:36;;;;;;;37.23;17.83;;;0.30;99.90;;;;;;5023063;28;20242;-69
2022/11/21 08:28:03;;;;;;;34.00;17.10;;;0.30;99.90;;;;;;5028211;28;20281;-69
2022/11/21 08:30:29;;;;;;;39.30;20.23;;;0.20;99.90;;;;;;5024473;28;20220;-69
2022/11/21 08:32:57;;;;;;;40.30;18.33;;;0.20;99.90;;;;;;5024436;28;20266;-69
2022/11/21 08:35:24;;;;;;;39.10;19.13;;;0.20;99.90;;;;;;5025374;28;20288;-69
2022/11/21 08:37:54;;;;;;;38.13;18.23;;;0.00;99.90;;;;;;5023340;28;20221;-68
2022/11/21 08:40:20;;;;;;;40.50;19.47;;;0.10;99.90;;;;;;5028378;28;20212;-69
2022/11/21 08:42:45;;;;;;;42.60;19.90;;;0.10;99.90;;;;;;5024721;28;20290;-69
2022/11/21 08:45:11;;;;;;;43.30;19.97;;;0.20;99.90;;;;;;5024188;28;20642;-69
2022/11/21 08:47:37;;;;;;;43.50;20.13;;;0.20;99.90;;;;;;5019958;28;20287;-69
2022/11/21 08:50:02;;;;;;;45.23;19.77;;;0.20;99.90;;;;;;5025124;28;20227;-71
2022/11/21 08:52:28;;;;;;;43.13;19.57;;;0.20;99.90;;;;;;5024892;28;20715;-69
2022/11/21 08:54:54;;;;;;;39.70;19.57;;;0.20;99.90;;;;;;5022154;28;20215;-68
2022/11/21 08:57:19;;;;;;;39.40;19.60;;;0.30;99.90;;;;;;5029617;28;20237;-69
2022/11/21 08:59:45;;;;;;;36.00;16.37;;;0.10;99.90;;;;;;5026404;28;20541;-69
2022/11/21 09:02:10;;;;;;;40.30;19.03;;;0.00;99.90;;;;;;5028974;28;20208;-69
2022/11/21 09:04:36;;;;;;;41.13;20.00;;;-0.10;99.90;;;;;;5030080;28;20763;-69
2022/11/21 09:07:03;;;;;;;37.20;17.27;;;-0.20;99.90;;;;;;5024910;28;20209;-69
2022/11/21 09:09:28;;;;;;;37.27;17.77;;;-0.10;99.90;;;;;;5031999;28;20238;-69
2022/11/21 09:11:54;;;;;;;34.20;16.17;;;-0.20;99.90;;;;;;5027721;28;20647;-68
2022/11/21 09:19:48;;;;;;;30.73;15.67;;;-0.20;99.90;;;;;;5026263;28;20220;-69
2022/11/21 09:22:13;;;;;;;29.97;15.07;;;-0.30;99.90;;;;;;5028352;28;20647;-69
2022/11/21 09:24:39;;;;;;;30.17;15.43;;;-0.10;99.90;;;;;;5029917;28;20608;-69
2022/11/21 09:27:04;;;;;;;31.10;16.77;;;-0.10;99.90;;;;;;5025374;28;20188;-69
2022/11/21 09:29:30;;;;;;;31.50;16.73;;;-0.10;99.90;;;;;;5028414;28;20749;-69
2022/11/21 09:31:56;;;;;;;35.53;16.03;;;-0.10;99.90;;;;;;5028395;28;20233;-70
2022/11/21 09:34:21;;;;;;;30.80;16.10;;;0.00;99.90;;;;;;5031969;28;20256;-69
2022/11/21 09:36:47;;;;;;;34.70;15.73;;;0.10;99.90;;;;;;5027911;28;20224;-69
2022/11/21 09:39:12;;;;;;;32.77;15.23;;;0.00;99.90;;;;;;5027683;28;20206;-69
2022/11/21 09:42:13;;;;;;;31.43;15.27;;;0.10;99.90;;;;;;5026418;28;20220;-68
2022/11/21 09:44:51;;;;;;;29.70;15.20;;;0.20;99.90;;;;;;5005141;28;20300;-69
2022/11/21 09:47:24;;;;;;;27.37;13.07;;;0.10;99.90;;;;;;5026648;28;20465;-68
2022/11/21 09:50:00;;;;;;;31.17;14.27;;;0.10;99.90;;;;;;5030715;28;20222;-69
2022/11/21 09:53:03;;;;;;;29.43;14.27;;;0.00;99.90;;;;;;5026321;28;20325;-69
2022/11/21 09:55:56;;;;;;;27.63;14.27;;;0.10;99.90;;;;;;5024476;28;20596;-69
2022/11/21 09:58:49;;;;;;;27.93;14.93;;;0.10;99.90;;;;;;5026945;28;20364;-69
2022/11/21 10:01:15;;;;;;;29.47;14.63;;;0.20;99.90;;;;;;5025292;28;20274;-69
2022/11/21 10:03:49;;;;;;;30.53;15.40;;;0.20;99.90;;;;;;5031148;28;20221;-69
2022/11/21 10:06:19;;;;;;;33.73;16.97;;;0.20;99.90;;;;;;5027824;28;20189;-69
2022/11/21 10:09:00;;;;;;;28.77;16.37;;;0.30;99.90;;;;;;5023876;28;20287;-69
2022/11/21 10:15:01;;;;;;;32.30;16.03;;;0.20;99.90;;;;;;5024852;28;20243;-69
2022/11/21 10:17:45;;;;;;;33.60;15.67;;;0.30;99.90;;;;;;4996523;28;20289;-69
2022/11/21 10:20:44;;;;;;;27.90;13.53;;;0.30;99.90;;;;;;5025993;28;20216;-69
2022/11/21 10:23:41;;;;;;;23.27;12.13;;;0.20;99.90;;;;;;5026860;28;20666;-69
2022/11/21 10:26:13;;;;;;;19.30;11.43;;;0.20;99.90;;;;;;5026253;28;20726;-69
2022/11/21 10:28:50;;;;;;;23.93;11.17;;;0.10;99.90;;;;;;5023039;28;20220;-68
2022/11/21 10:31:16;;;;;;;20.17;10.00;;;0.10;99.90;;;;;;5028922;28;20229;-70
2022/11/21 10:33:42;;;;;;;18.87;9.87;;;0.10;99.90;;;;;;5025887;28;20222;-69
2022/11/21 10:36:19;;;;;;;24.53;11.53;;;0.10;99.90;;;;;;5026336;28;20204;-70
2022/11/21 10:38:46;;;;;;;18.77;9.50;;;0.10;99.90;;;;;;5026385;28;20214;-69
2022/11/21 10:41:29;;;;;;;24.33;10.80;;;0.10;99.90;;;;;;5024490;28;20299;-69
2022/11/21 10:47:00;;;;;;;23.87;11.43;;;0.10;99.90;;;;;;5025679;28;20216;-68
2022/11/21 10:49:31;;;;;;;22.50;11.23;;;0.10;99.90;;;;;;5022807;28;20228;-71
2022/11/21 10:52:15;;;;;;;21.93;11.83;;;0.00;99.90;;;;;;5027502;28;20391;-69
2022/11/21 10:55:02;;;;;;;22.80;11.17;;;0.10;99.90;;;;;;5039601;28;20261;-69
2022/11/21 10:57:33;;;;;;;24.13;10.97;;;0.10;99.90;;;;;;5027988;28;20315;-69
2022/11/21 11:00:11;;;;;;;21.13;11.40;;;0.00;99.90;;;;;;5025531;28;20182;-71
2022/11/21 11:02:41;;;;;;;24.77;12.73;;;-0.10;99.90;;;;;;5029468;28;20571;-69
2022/11/21 11:05:19;;;;;;;24.40;11.90;;;-0.30;99.90;;;;;;5028132;28;20220;-69
2022/11/21 11:08:13;;;;;;;22.40;11.67;;;-0.20;99.90;;;;;;5024180;28;20221;-71
2022/11/21 11:10:43;;;;;;;23.07;11.30;;;-0.10;99.90;;;;;;5023771;28;20215;-69
2022/11/21 11:13:32;;;;;;;23.97;12.53;;;0.10;99.90;;;;;;5025906;28;20215;-69
2022/11/21 11:16:04;;;;;;;24.43;10.73;;;0.10;99.90;;;;;;5021276;28;20213;-69
2022/11/21 11:18:33;;;;;;;24.10;11.40;;;0.20;99.90;;;;;;5028236;28;20310;-68
2022/11/21 11:21:14;;;;;;;22.67;12.67;;;0.20;99.90;;;;;;5023465;28;20185;-71
2022/11/21 11:23:40;;;;;;;23.43;12.27;;;0.20;99.90;;;;;;5031329;28;20249;-71
2022/11/21 11:26:17;;;;;;;23.17;12.57;;;0.30;99.90;;;;;;5024906;28;20248;-69
2022/11/21 11:28:43;;;;;;;22.10;11.93;;;0.20;99.90;;;;;;5022530;28;20597;-69
2022/11/21 11:31:09;;;;;;;22.87;12.20;;;0.20;99.90;;;;;;5020987;28;20217;-69
2022/11/21 11:33:39;;;;;;;18.10;10.63;;;0.30;99.90;;;;;;5026766;28;20283;-71
2022/11/21 11:36:13;;;;;;;19.07;9.80;;;0.50;99.90;;;;;;5019992;28;20261;-69
2022/11/21 11:38:43;;;;;;;20.77;10.63;;;0.60;99.90;;;;;;5029606;28;20238;-69
2022/11/21 11:47:54;;;;;;;19.57;10.37;;;0.40;99.90;;;;;;5024141;28;20226;-69
2022/11/21 11:50:33;;;;;;;18.40;9.10;;;0.40;99.90;;;;;;5022477;28;20216;-69
2022/11/21 11:53:16;;;;;;;18.33;9.40;;;0.50;99.90;;;;;;5025925;28;20216;-69
2022/11/21 11:55:46;;;;;;;16.00;9.60;;;0.60;99.90;;;;;;5023100;28;20204;-69
2022/11/21 11:58:38;;;;;;;13.80;8.20;;;0.60;99.90;;;;;;5028505;28;20225;-69
2022/11/21 12:01:20;;;;;;;13.80;7.67;;;0.60;99.90;;;;;;5022984;28;20216;-69
2022/11/21 12:03:55;;;;;;;17.27;8.33;;;0.60;99.90;;;;;;5026386;28;20208;-69
2022/11/21 12:06:25;;;;;;;15.50;8.53;;;0.60;99.90;;;;;;5025108;28;20269;-69
2022/11/21 12:09:13;;;;;;;13.00;7.93;;;0.70;99.90;;;;;;5022062;28;20237;-69
2022/11/21 12:12:06;;;;;;;12.43;7.63;;;0.50;99.90;;;;;;4980630;28;20210;-69
2022/11/21 12:17:46;;;;;;;16.10;8.00;;;0.60;99.90;;;;;;5022484;28;20272;-69
2022/11/21 12:20:27;;;;;;;13.80;7.47;;;0.50;99.90;;;;;;5025139;28;20221;-71
2022/11/21 12:22:54;;;;;;;14.10;7.63;;;0.40;99.90;;;;;;5018947;28;20297;-67
2022/11/21 12:25:29;;;;;;;13.57;7.60;;;0.40;99.90;;;;;;5028500;28;20235;-69
2022/11/21 12:27:55;;;;;;;12.80;8.30;;;0.50;99.90;;;;;;5023523;28;20678;-70
2022/11/21 12:30:33;;;;;;;14.63;8.10;;;0.20;99.90;;;;;;5022606;28;20224;-69
2022/11/21 12:33:11;;;;;;;12.80;8.17;;;0.20;99.90;;;;;;5027578;28;20171;-71
2022/11/21 12:35:56;;;;;;;17.90;9.77;;;0.30;99.90;;;;;;5021377;28;20264;-69
2022/11/21 12:38:45;;;;;;;19.37;10.80;;;0.40;99.90;;;;;;5023928;28;20246;-70
2022/11/21 12:44:32;;;;;;;19.50;10.57;;;0.50;99.90;;;;;;5020199;28;20308;-69
2022/11/21 12:47:22;;;;;;;15.47;8.53;;;0.40;99.90;;;;;;5024497;28;20217;-69
2022/11/21 12:55:40;;;;;;;20.33;9.70;;;0.30;99.90;;;;;;5020486;28;20228;-69
2022/11/21 12:58:34;;;;;;;15.87;8.97;;;0.10;99.90;;;;;;5025959;28;20211;-69
2022/11/21 13:01:22;;;;;;;16.63;10.37;;;0.20;99.90;;;;;;5024944;28;20366;-69
2022/11/21 13:04:07;;;;;;;18.87;10.10;;;0.40;99.90;;;;;;5024561;28;20244;-70
2022/11/21 13:06:39;;;;;;;19.80;10.40;;;0.20;99.90;;;;;;5026428;28;20213;-68
2022/11/21 13:09:08;;;;;;;23.63;11.73;;;0.30;99.90;;;;;;5022585;28;20626;-69
2022/11/21 13:14:36;;;;;;;20.53;10.33;;;0.30;99.90;;;;;;5019780;28;20216;-70
2022/11/21 13:17:23;;;;;;;22.63;12.07;;;0.40;99.90;;;;;;5020388;28;20217;-69
2022/11/21 13:20:04;;;;;;;22.87;11.83;;;0.30;99.90;;;;;;5023546;28;20215;-70
2022/11/21 13:22:36;;;;;;;20.93;11.30;;;0.30;99.90;;;;;;5023811;28;20698;-70
2022/11/21 13:25:32;;;;;;;24.60;11.93;;;0.20;99.90;;;;;;5022681;28;20224;-70
2022/11/21 13:28:16;;;;;;;21.43;11.07;;;0.30;99.90;;;;;;5024648;28;20223;-69
2022/11/21 13:30:52;;;;;;;20.83;12.03;;;0.30;99.90;;;;;;5023656;28;20708;-70